createdAt,value
2022-10-29T00:00:12.401Z,16.89
2022-10-29T00:01:14.908Z,16.91
2022-10-29T00:02:17.319Z,16.91
2022-10-29T00:03:20.831Z,16.94
2022-10-29T00:04:23.241Z,16.91
2022-10-29T00:05:25.619Z,16.99
2022-10-29T00:06:28.370Z,16.93
2022-10-29T00:07:30.887Z,16.92
2022-10-29T00:08:35.224Z,16.92
2022-10-29T00:09:37.433Z,16.96
2022-10-29T00:10:39.807Z,16.91
2022-10-29T00:11:41.942Z,16.91
2022-10-29T00:12:44.336Z,16.90
2022-10-29T00:13:48.374Z,16.87
2022-10-29T00:14:50.819Z,16.88
2022-10-29T00:15:53.212Z,16.81
2022-10-29T00:16:56.973Z,16.84
2022-10-29T00:17:59.421Z,16.87
2022-10-29T00:19:01.683Z,16.87
2022-10-29T00:20:04.425Z,16.86
2022-10-29T00:21:10.686Z,16.90
2022-10-29T00:22:12.820Z,16.89
2022-10-29T00:23:15.182Z,16.91
2022-10-29T00:24:17.833Z,16.99
2022-10-29T00:25:20.022Z,16.97
2022-10-29T00:26:22.583Z,16.97
2022-10-29T00:27:25.167Z,16.95
2022-10-29T00:28:27.656Z,16.97
2022-10-29T00:29:29.791Z,16.99
2022-10-29T00:30:31.957Z,17.00
2022-10-29T00:31:35.994Z,17.00
2022-10-29T00:32:38.569Z,17.02
2022-10-29T00:33:40.778Z,17.04
2022-10-29T00:34:43.112Z,17.03
2022-10-29T00:35:59.631Z,17.01
2022-10-29T00:37:01.798Z,16.97
2022-10-29T00:38:03.973Z,16.96
2022-10-29T00:39:06.166Z,16.93
2022-10-29T00:40:09.252Z,16.98
2022-10-29T00:41:15.189Z,16.99
2022-10-29T00:42:18.104Z,16.96
2022-10-29T00:43:22.370Z,16.97
2022-10-29T00:44:30.901Z,16.99
2022-10-29T00:45:33.058Z,16.93
2022-10-29T00:46:36.175Z,16.91
2022-10-29T00:47:40.154Z,16.92
2022-10-29T00:48:48.120Z,16.91
2022-10-29T00:49:59.103Z,16.86
2022-10-29T00:51:05.028Z,16.86
2022-10-29T00:52:09.136Z,16.85
2022-10-29T00:53:11.884Z,16.73
2022-10-29T00:54:16.340Z,16.81
2022-10-29T00:55:20.039Z,16.78
2022-10-29T00:56:25.486Z,16.77
2022-10-29T00:57:34.405Z,16.78
2022-10-29T00:58:37.040Z,16.80
2022-10-29T00:59:40.040Z,16.76
2022-10-29T01:00:43.720Z,16.78
2022-10-29T01:01:49.253Z,16.75
2022-10-29T01:02:51.655Z,16.75
2022-10-29T01:03:55.674Z,16.74
2022-10-29T01:04:57.980Z,16.72
2022-10-29T01:06:02.108Z,16.72
2022-10-29T01:07:05.116Z,16.72
2022-10-29T01:08:07.896Z,16.70
2022-10-29T01:09:10.283Z,16.73
2022-10-29T01:10:13.545Z,16.75
2022-10-29T01:11:27.933Z,16.82
2022-10-29T01:12:41.529Z,16.72
2022-10-29T01:13:49.572Z,16.76
2022-10-29T01:15:11.100Z,16.77
2022-10-29T01:16:13.182Z,16.69
2022-10-29T01:17:54.166Z,16.64
2022-10-29T01:19:34.253Z,16.65
2022-10-29T01:21:11.967Z,16.62
2022-10-29T01:22:23.547Z,16.63
2022-10-29T01:23:48.990Z,16.54
2022-10-29T01:25:09.207Z,16.53
2022-10-29T01:26:14.570Z,16.46
2022-10-29T01:27:52.223Z,16.45
2022-10-29T01:29:14.076Z,16.48
2022-10-29T01:30:30.178Z,16.49
2022-10-29T01:31:58.335Z,16.48
2022-10-29T01:33:38.498Z,16.46
2022-10-29T01:34:54.440Z,16.43
2022-10-29T01:36:25.885Z,16.45
2022-10-29T01:37:52.970Z,16.46
2022-10-29T01:39:26.045Z,16.49
2022-10-29T01:40:34.851Z,16.47
2022-10-29T01:42:04.120Z,16.49
2022-10-29T01:43:20.887Z,16.45
2022-10-29T01:44:41.770Z,16.42
2022-10-29T01:45:50.707Z,16.44
2022-10-29T01:47:00.215Z,16.42
2022-10-29T01:48:13.299Z,16.46
2022-10-29T01:49:24.642Z,16.41
2022-10-29T01:50:28.139Z,16.43
2022-10-29T01:51:34.185Z,16.36
2022-10-29T01:52:38.901Z,16.33
2022-10-29T01:53:41.448Z,16.28
2022-10-29T01:54:45.598Z,16.31
2022-10-29T01:55:47.764Z,16.29
2022-10-29T01:56:57.509Z,16.26
2022-10-29T01:57:59.857Z,16.27
2022-10-29T01:59:06.228Z,16.27
2022-10-29T02:00:17.404Z,16.20
2022-10-29T02:01:44.520Z,16.17
2022-10-29T02:02:58.307Z,16.14
2022-10-29T02:04:45.811Z,16.15
2022-10-29T02:06:12.307Z,16.15
2022-10-29T02:07:32.329Z,16.14
2022-10-29T02:08:40.477Z,16.11
2022-10-29T02:09:54.604Z,16.17
2022-10-29T02:11:45.811Z,16.10
2022-10-29T02:12:52.065Z,16.08
2022-10-29T02:14:23.096Z,16.10
2022-10-29T02:15:43.650Z,16.05
2022-10-29T02:16:47.213Z,16.03
2022-10-29T02:17:49.602Z,15.99
2022-10-29T02:18:53.296Z,15.98
2022-10-29T02:19:55.441Z,15.97
2022-10-29T02:20:57.585Z,15.95
2022-10-29T02:21:59.732Z,15.91
2022-10-29T02:23:02.086Z,15.88
2022-10-29T02:24:04.579Z,15.91
2022-10-29T02:25:08.125Z,15.90
2022-10-29T02:26:10.605Z,15.88
2022-10-29T02:27:12.939Z,15.92
2022-10-29T02:28:15.101Z,15.93
2022-10-29T02:29:17.972Z,15.92
2022-10-29T02:30:20.166Z,15.91
2022-10-29T02:31:22.316Z,15.91
2022-10-29T02:32:24.668Z,15.95
2022-10-29T02:33:26.880Z,15.94
2022-10-29T02:34:29.254Z,15.92
2022-10-29T02:35:31.414Z,15.87
2022-10-29T02:36:33.552Z,15.86
2022-10-29T02:37:36.187Z,15.84
2022-10-29T02:38:40.551Z,15.98
2022-10-29T02:39:42.728Z,16.02
2022-10-29T02:40:44.879Z,15.99
2022-10-29T02:41:47.018Z,15.90
2022-10-29T02:42:49.157Z,15.86
2022-10-29T02:43:51.297Z,15.80
2022-10-29T02:44:53.501Z,15.80
2022-10-29T02:46:15.993Z,15.81
2022-10-29T02:47:18.361Z,15.78
2022-10-29T02:48:20.487Z,15.78
2022-10-29T02:49:22.671Z,15.78
2022-10-29T02:50:24.815Z,15.77
2022-10-29T02:51:26.959Z,15.75
2022-10-29T02:52:29.294Z,15.78
2022-10-29T02:53:31.423Z,15.78
2022-10-29T02:54:33.962Z,15.82
2022-10-29T02:55:36.091Z,15.80
2022-10-29T02:56:38.431Z,15.75
2022-10-29T02:57:44.617Z,15.72
2022-10-29T02:58:46.781Z,15.71
2022-10-29T02:59:48.980Z,15.68
2022-10-29T03:00:52.172Z,15.66
2022-10-29T03:01:54.570Z,15.67
2022-10-29T03:02:57.006Z,15.72
2022-10-29T03:03:59.508Z,15.73
2022-10-29T03:05:01.834Z,15.73
2022-10-29T03:06:04.284Z,15.74
2022-10-29T03:07:06.615Z,15.73
2022-10-29T03:08:08.756Z,15.73
2022-10-29T03:09:11.220Z,15.73
2022-10-29T03:10:13.348Z,15.74
2022-10-29T03:11:16.028Z,15.72
2022-10-29T03:12:18.218Z,15.74
2022-10-29T03:13:20.403Z,15.71
2022-10-29T03:14:22.987Z,15.68
2022-10-29T03:15:25.353Z,15.64
2022-10-29T03:16:27.713Z,15.63
2022-10-29T03:17:29.878Z,15.66
2022-10-29T03:18:32.022Z,15.66
2022-10-29T03:19:35.840Z,15.66
2022-10-29T03:20:38.544Z,15.66
2022-10-29T03:21:40.712Z,15.63
2022-10-29T03:22:42.874Z,15.64
2022-10-29T03:23:45.228Z,15.64
2022-10-29T03:24:47.386Z,15.60
2022-10-29T03:25:55.588Z,15.65
2022-10-29T03:26:58.596Z,15.64
2022-10-29T03:28:00.759Z,15.66
2022-10-29T03:29:03.193Z,15.64
2022-10-29T03:30:06.088Z,15.66
2022-10-29T03:31:08.293Z,15.65
2022-10-29T03:32:10.447Z,15.64
2022-10-29T03:33:12.590Z,15.65
2022-10-29T03:34:14.914Z,15.65
2022-10-29T03:35:17.112Z,15.70
2022-10-29T03:36:19.385Z,15.68
2022-10-29T03:37:21.567Z,15.72
2022-10-29T03:38:23.917Z,15.73
2022-10-29T03:39:26.265Z,15.73
2022-10-29T03:40:28.881Z,15.71
2022-10-29T03:41:31.082Z,15.71
2022-10-29T03:42:33.337Z,15.69
2022-10-29T03:43:37.143Z,15.70
2022-10-29T03:44:39.284Z,15.70
2022-10-29T03:45:41.788Z,15.68
2022-10-29T03:46:43.941Z,15.67
2022-10-29T03:47:46.104Z,15.67
2022-10-29T03:48:51.288Z,15.69
2022-10-29T03:49:54.176Z,15.68
2022-10-29T03:51:03.047Z,15.68
2022-10-29T03:52:05.245Z,15.65
2022-10-29T03:53:08.427Z,15.67
2022-10-29T03:54:10.648Z,15.67
2022-10-29T03:55:12.825Z,15.67
2022-10-29T03:56:15.014Z,15.64
2022-10-29T03:57:17.165Z,15.63
2022-10-29T03:58:20.196Z,15.60
2022-10-29T03:59:22.416Z,15.61
2022-10-29T04:00:24.966Z,15.60
2022-10-29T04:01:27.222Z,15.58
2022-10-29T04:02:29.750Z,15.57
2022-10-29T04:03:34.044Z,15.58
2022-10-29T04:04:36.395Z,15.58
2022-10-29T04:05:38.988Z,15.60
2022-10-29T04:06:41.154Z,15.63
2022-10-29T04:07:43.457Z,15.62
2022-10-29T04:08:45.892Z,15.63
2022-10-29T04:09:48.105Z,15.66
2022-10-29T04:10:51.363Z,15.69
2022-10-29T04:11:53.522Z,15.84
2022-10-29T04:12:56.322Z,15.85
2022-10-29T04:13:58.688Z,15.80
2022-10-29T04:15:01.078Z,15.80
2022-10-29T04:16:03.563Z,15.79
2022-10-29T04:17:05.845Z,15.78
2022-10-29T04:18:08.902Z,15.78
2022-10-29T04:19:11.101Z,15.77
2022-10-29T04:20:27.888Z,15.82
2022-10-29T04:28:37.004Z,15.87
2022-10-29T04:28:43.987Z,15.84
2022-10-29T04:29:46.428Z,15.83
2022-10-29T04:30:49.835Z,15.81
2022-10-29T04:31:52.299Z,15.79
2022-10-29T04:32:59.437Z,15.80
2022-10-29T04:34:02.097Z,15.80
2022-10-29T04:35:04.944Z,15.78
2022-10-29T04:36:07.580Z,15.78
2022-10-29T04:37:10.156Z,15.77
2022-10-29T04:38:12.983Z,15.82
2022-10-29T04:39:18.283Z,15.84
2022-10-29T04:40:26.910Z,15.85
2022-10-29T04:41:29.070Z,15.84
2022-10-29T04:42:37.217Z,15.79
2022-10-29T04:43:39.387Z,15.77
2022-10-29T04:44:41.550Z,15.76
2022-10-29T04:46:50.974Z,15.72
2022-10-29T04:48:03.531Z,15.68
2022-10-29T04:49:05.748Z,15.74
2022-10-29T04:50:08.299Z,15.75
2022-10-29T04:51:25.496Z,15.82
2022-10-29T04:52:28.104Z,15.77
2022-10-29T04:53:30.533Z,15.79
2022-10-29T04:54:32.692Z,15.76
2022-10-29T04:55:39.619Z,15.76
2022-10-29T04:56:41.883Z,15.72
2022-10-29T04:57:49.684Z,15.71
2022-10-29T04:58:52.821Z,15.73
2022-10-29T04:59:54.967Z,15.75
2022-10-29T05:01:05.327Z,15.75
2022-10-29T05:02:08.563Z,15.76
2022-10-29T05:03:11.464Z,15.77
2022-10-29T05:04:13.630Z,15.76
2022-10-29T05:05:17.618Z,15.77
2022-10-29T05:06:19.797Z,15.74
2022-10-29T05:07:21.982Z,15.73
2022-10-29T05:08:24.336Z,15.73
2022-10-29T05:09:26.565Z,15.80
2022-10-29T05:10:31.362Z,15.88
2022-10-29T05:11:33.534Z,15.99
2022-10-29T05:12:36.088Z,16.04
2022-10-29T05:13:38.250Z,16.08
2022-10-29T05:14:40.420Z,16.01
2022-10-29T05:15:42.819Z,16.02
2022-10-29T05:16:45.007Z,16.01
2022-10-29T05:17:47.532Z,16.00
2022-10-29T05:18:49.731Z,16.01
2022-10-29T05:19:52.263Z,16.03
2022-10-29T05:20:55.337Z,16.03
2022-10-29T05:21:57.485Z,16.03
2022-10-29T05:23:01.124Z,16.01
2022-10-29T05:24:03.433Z,16.01
2022-10-29T05:25:06.038Z,16.18
2022-10-29T05:26:08.216Z,16.17
2022-10-29T05:27:10.440Z,16.10
2022-10-29T05:28:22.191Z,16.09
2022-10-29T05:29:24.373Z,16.03
2022-10-29T05:30:26.524Z,15.99
2022-10-29T05:31:29.044Z,16.01
2022-10-29T05:32:31.515Z,15.97
2022-10-29T05:33:33.943Z,15.93
2022-10-29T05:34:38.373Z,15.89
2022-10-29T05:35:41.642Z,15.93
2022-10-29T05:36:43.830Z,15.91
2022-10-29T05:37:56.589Z,15.90
2022-10-29T05:38:58.759Z,15.88
2022-10-29T05:40:00.946Z,15.87
2022-10-29T05:41:03.147Z,15.87
2022-10-29T05:42:06.101Z,15.89
2022-10-29T05:43:08.776Z,15.89
2022-10-29T05:44:10.969Z,15.84
2022-10-29T05:45:13.415Z,15.87
2022-10-29T05:46:16.688Z,15.82
2022-10-29T05:47:18.845Z,15.80
2022-10-29T05:48:21.188Z,15.80
2022-10-29T05:49:23.347Z,15.76
2022-10-29T05:50:26.054Z,15.73
2022-10-29T05:51:28.236Z,15.71
2022-10-29T05:52:30.450Z,15.72
2022-10-29T05:53:32.662Z,15.75
2022-10-29T05:54:34.874Z,15.73
2022-10-29T05:55:37.232Z,15.72
2022-10-29T05:56:39.380Z,15.76
2022-10-29T05:57:41.743Z,15.77
2022-10-29T05:58:44.117Z,15.79
2022-10-29T05:59:46.768Z,15.81
2022-10-29T06:00:48.966Z,15.80
2022-10-29T06:01:51.295Z,15.80
2022-10-29T06:02:53.785Z,15.81
2022-10-29T06:03:56.307Z,15.81
2022-10-29T06:04:58.586Z,15.80
2022-10-29T06:06:00.832Z,15.77
2022-10-29T06:07:03.476Z,15.75
2022-10-29T06:08:05.694Z,15.75
2022-10-29T06:09:08.184Z,15.77
2022-10-29T06:10:10.422Z,15.73
2022-10-29T06:11:12.555Z,15.75
2022-10-29T06:12:14.879Z,15.79
2022-10-29T06:13:19.477Z,15.79
2022-10-29T06:14:21.666Z,15.84
2022-10-29T06:15:23.991Z,15.82
2022-10-29T06:16:26.154Z,15.85
2022-10-29T06:17:28.513Z,15.84
2022-10-29T06:18:30.898Z,15.84
2022-10-29T06:19:33.299Z,15.79
2022-10-29T06:20:36.968Z,15.81
2022-10-29T06:21:39.280Z,15.83
2022-10-29T06:22:41.518Z,15.77
2022-10-29T06:23:44.036Z,15.77
2022-10-29T06:24:46.284Z,15.78
2022-10-29T06:25:48.710Z,15.82
2022-10-29T06:26:53.854Z,15.83
2022-10-29T06:28:07.243Z,15.83
2022-10-29T06:29:09.598Z,15.82
2022-10-29T06:30:12.292Z,15.82
2022-10-29T06:31:14.452Z,15.81
2022-10-29T06:32:16.810Z,15.84
2022-10-29T06:33:19.460Z,15.82
2022-10-29T06:34:21.860Z,15.86
2022-10-29T06:35:24.116Z,15.83
2022-10-29T06:36:26.317Z,15.89
2022-10-29T06:37:29.700Z,15.95
2022-10-29T06:38:31.889Z,15.96
2022-10-29T06:39:34.144Z,15.96
2022-10-29T06:40:36.302Z,15.96
2022-10-29T06:41:38.494Z,16.00
2022-10-29T06:42:41.470Z,16.00
2022-10-29T06:43:43.632Z,16.04
2022-10-29T06:44:45.965Z,16.04
2022-10-29T06:45:51.195Z,16.04
2022-10-29T06:46:53.533Z,16.08
2022-10-29T06:47:56.257Z,16.12
2022-10-29T06:48:58.570Z,16.17
2022-10-29T06:50:00.936Z,16.20
2022-10-29T06:51:03.094Z,16.19
2022-10-29T06:52:05.349Z,16.23
2022-10-29T06:53:12.093Z,16.29
2022-10-29T06:54:14.485Z,16.37
2022-10-29T06:55:16.661Z,16.38
2022-10-29T06:56:18.808Z,16.53
2022-10-29T06:57:23.326Z,16.62
2022-10-29T06:58:25.469Z,16.66
2022-10-29T06:59:27.807Z,16.74
2022-10-29T07:00:31.374Z,16.83
2022-10-29T07:01:33.704Z,16.85
2022-10-29T07:02:36.105Z,16.91
2022-10-29T07:03:38.261Z,16.97
2022-10-29T07:04:40.609Z,17.02
2022-10-29T07:05:43.040Z,17.03
2022-10-29T07:06:45.402Z,17.05
2022-10-29T07:07:47.711Z,17.07
2022-10-29T07:08:49.867Z,17.10
2022-10-29T07:09:52.245Z,17.14
2022-10-29T07:10:54.893Z,17.21
2022-10-29T07:11:57.047Z,17.34
2022-10-29T07:13:00.379Z,17.42
2022-10-29T07:14:02.671Z,17.43
2022-10-29T07:15:05.690Z,17.43
2022-10-29T07:16:07.924Z,17.40
2022-10-29T07:17:10.150Z,17.45
2022-10-29T07:18:12.851Z,17.49
2022-10-29T07:19:15.227Z,17.50
2022-10-29T07:20:18.818Z,17.54
2022-10-29T07:21:21.014Z,17.55
2022-10-29T07:22:23.241Z,17.63
2022-10-29T07:23:25.429Z,17.66
2022-10-29T07:24:27.659Z,17.72
2022-10-29T07:25:31.112Z,17.77
2022-10-29T07:26:33.250Z,17.84
2022-10-29T07:27:35.584Z,18.01
2022-10-29T07:28:37.806Z,18.18
2022-10-29T07:29:40.346Z,18.23
2022-10-29T07:30:43.734Z,18.34
2022-10-29T07:31:45.902Z,18.41
2022-10-29T07:32:48.100Z,18.44
2022-10-29T07:33:50.381Z,18.51
2022-10-29T07:34:52.572Z,18.63
2022-10-29T07:35:59.333Z,18.67
2022-10-29T07:37:01.555Z,18.70
2022-10-29T07:38:10.436Z,18.80
2022-10-29T07:39:13.692Z,18.90
2022-10-29T07:40:16.323Z,18.96
2022-10-29T07:41:18.475Z,19.08
2022-10-29T07:42:20.830Z,19.16
2022-10-29T07:43:23.535Z,19.23
2022-10-29T07:44:25.694Z,19.42
2022-10-29T07:45:28.665Z,19.44
2022-10-29T07:46:30.865Z,19.47
2022-10-29T07:47:33.137Z,19.55
2022-10-29T07:48:35.325Z,19.64
2022-10-29T07:49:37.531Z,19.67
2022-10-29T07:50:39.734Z,19.71
2022-10-29T07:51:42.461Z,19.76
2022-10-29T07:52:44.693Z,19.77
2022-10-29T07:53:46.872Z,19.85
2022-10-29T07:54:49.093Z,19.98
2022-10-29T07:55:57.830Z,20.09
2022-10-29T07:57:00.034Z,20.09
2022-10-29T07:58:05.192Z,20.18
2022-10-29T07:59:09.275Z,20.27
2022-10-29T08:00:13.112Z,20.32
2022-10-29T08:01:15.342Z,20.26
2022-10-29T08:02:17.790Z,20.32
2022-10-29T08:03:20.087Z,20.38
2022-10-29T08:04:22.498Z,20.42
2022-10-29T08:05:26.136Z,20.40
2022-10-29T08:06:28.318Z,20.53
2022-10-29T08:07:30.573Z,20.56
2022-10-29T08:08:34.865Z,20.64
2022-10-29T08:09:37.084Z,20.83
2022-10-29T08:10:39.457Z,20.90
2022-10-29T08:11:41.688Z,20.87
2022-10-29T08:12:57.991Z,20.98
2022-10-29T08:14:00.808Z,21.01
2022-10-29T08:15:05.833Z,21.12
2022-10-29T08:16:08.237Z,21.02
2022-10-29T08:17:10.415Z,20.96
2022-10-29T08:18:17.431Z,20.91
2022-10-29T08:19:19.584Z,20.76
2022-10-29T08:20:23.936Z,20.68
2022-10-29T08:21:26.580Z,20.58
2022-10-29T08:22:30.893Z,20.44
2022-10-29T08:23:33.626Z,20.41
2022-10-29T08:24:35.801Z,20.37
2022-10-29T08:25:41.442Z,20.39
2022-10-29T08:26:44.187Z,20.38
2022-10-29T08:27:46.510Z,20.42
2022-10-29T08:28:48.750Z,20.40
2022-10-29T08:29:50.935Z,20.46
2022-10-29T08:30:53.519Z,20.54
2022-10-29T08:31:57.000Z,20.56
2022-10-29T08:32:59.805Z,20.64
2022-10-29T08:34:04.994Z,20.66
2022-10-29T08:35:11.855Z,20.62
2022-10-29T08:36:14.891Z,20.57
2022-10-29T08:37:17.322Z,20.53
2022-10-29T08:38:19.508Z,20.55
2022-10-29T08:39:21.693Z,20.47
2022-10-29T08:40:32.648Z,20.42
2022-10-29T08:42:01.792Z,20.34
2022-10-29T08:43:47.514Z,20.39
2022-10-29T08:45:17.509Z,20.45
2022-10-29T08:46:28.246Z,20.43
2022-10-29T08:47:37.745Z,20.44
2022-10-29T08:48:47.390Z,20.58
2022-10-29T08:50:19.312Z,20.76
2022-10-29T08:51:27.264Z,20.88
2022-10-29T08:52:33.950Z,21.00
2022-10-29T08:53:58.826Z,21.06
2022-10-29T08:55:22.722Z,21.19
2022-10-29T08:56:40.076Z,21.26
2022-10-29T08:57:46.099Z,21.27
2022-10-29T08:58:59.159Z,21.38
2022-10-29T09:01:17.001Z,21.44
2022-10-29T09:02:19.740Z,21.43
2022-10-29T09:03:22.501Z,21.47
2022-10-29T09:04:36.320Z,21.45
2022-10-29T09:06:02.578Z,21.42
2022-10-29T09:07:13.912Z,21.50
2022-10-29T09:08:32.317Z,21.52
2022-10-29T09:09:40.148Z,21.53
2022-10-29T09:10:55.813Z,21.55
2022-10-29T09:12:03.988Z,21.59
2022-10-29T09:13:17.898Z,21.64
2022-10-29T09:14:20.003Z,21.56
2022-10-29T09:15:41.239Z,21.65
2022-10-29T09:16:43.875Z,21.69
2022-10-29T09:17:49.226Z,21.68
2022-10-29T09:18:51.751Z,21.68
2022-10-29T09:20:18.689Z,21.86
2022-10-29T09:21:51.728Z,21.92
2022-10-29T09:22:58.918Z,21.88
2022-10-29T09:24:24.317Z,21.96
2022-10-29T09:25:46.081Z,21.81
2022-10-29T09:27:08.074Z,21.84
2022-10-29T09:28:37.400Z,21.83
2022-10-29T09:29:58.486Z,21.80
2022-10-29T09:31:13.528Z,21.65
2022-10-29T09:32:23.509Z,21.55
2022-10-29T09:33:27.032Z,21.48
2022-10-29T09:34:35.574Z,21.55
2022-10-29T09:35:47.322Z,21.56
2022-10-29T09:36:50.029Z,21.69
2022-10-29T09:38:00.211Z,21.78
2022-10-29T09:39:12.325Z,21.80
2022-10-29T09:40:32.397Z,21.91
2022-10-29T09:41:35.260Z,21.90
2022-10-29T09:42:42.384Z,21.85
2022-10-29T09:44:02.057Z,21.79
2022-10-29T09:45:11.139Z,21.85
2022-10-29T09:46:37.217Z,21.82
2022-10-29T09:48:09.846Z,21.74
2022-10-29T09:49:24.180Z,21.93
2022-10-29T09:50:48.103Z,21.87
2022-10-29T09:52:00.695Z,21.89
2022-10-29T09:53:02.898Z,21.88
2022-10-29T09:54:05.666Z,21.87
2022-10-29T09:55:25.559Z,21.90
2022-10-29T09:56:28.195Z,21.80
2022-10-29T09:57:34.187Z,21.78
2022-10-29T09:58:45.160Z,21.75
2022-10-29T09:59:53.691Z,21.66
2022-10-29T10:00:57.189Z,21.67
2022-10-29T10:02:00.052Z,21.70
2022-10-29T10:03:15.143Z,21.72
2022-10-29T10:04:27.777Z,21.76
2022-10-29T10:05:32.804Z,21.81
2022-10-29T10:07:02.385Z,21.98
2022-10-29T10:08:13.661Z,21.85
2022-10-29T10:09:15.800Z,21.91
2022-10-29T10:10:23.311Z,21.87
2022-10-29T10:11:33.754Z,21.90
2022-10-29T10:12:38.598Z,21.85
2022-10-29T10:13:56.024Z,21.76
2022-10-29T10:15:31.100Z,21.75
2022-10-29T10:16:33.744Z,21.73
2022-10-29T10:18:00.345Z,21.67
2022-10-29T10:19:03.053Z,21.70
2022-10-29T10:20:26.650Z,21.55
2022-10-29T10:21:32.056Z,21.60
2022-10-29T10:22:34.240Z,21.52
2022-10-29T10:23:53.465Z,21.59
2022-10-29T10:24:56.064Z,21.54
2022-10-29T10:26:02.356Z,21.59
2022-10-29T10:27:18.345Z,21.67
2022-10-29T10:28:32.127Z,21.68
2022-10-29T10:29:34.285Z,21.76
2022-10-29T10:30:36.857Z,21.81
2022-10-29T10:31:40.752Z,21.75
2022-10-29T10:32:42.937Z,21.71
2022-10-29T10:33:54.626Z,21.70
2022-10-29T10:34:56.797Z,21.77
2022-10-29T10:36:08.439Z,21.92
2022-10-29T10:37:10.514Z,22.15
2022-10-29T10:38:14.789Z,22.17
2022-10-29T10:39:28.597Z,22.23
2022-10-29T10:40:30.960Z,22.20
2022-10-29T10:41:35.487Z,22.24
2022-10-29T10:42:42.865Z,22.24
2022-10-29T10:43:46.855Z,22.18
2022-10-29T10:45:14.485Z,22.18
2022-10-29T10:46:25.051Z,22.08
2022-10-29T10:47:36.282Z,22.02
2022-10-29T10:48:38.750Z,22.16
2022-10-29T10:49:41.115Z,22.21
2022-10-29T10:50:43.272Z,22.24
2022-10-29T10:51:54.819Z,22.11
2022-10-29T10:53:04.615Z,22.08
2022-10-29T10:54:30.101Z,22.02
2022-10-29T10:55:39.866Z,22.12
2022-10-29T10:56:56.692Z,22.24
2022-10-29T10:58:23.432Z,22.09
2022-10-29T10:59:38.041Z,22.01
2022-10-29T11:00:55.705Z,21.98
2022-10-29T11:02:00.754Z,22.04
2022-10-29T11:03:08.840Z,22.03
2022-10-29T11:04:18.704Z,22.03
2022-10-29T11:05:24.811Z,22.03
2022-10-29T11:06:37.564Z,22.06
2022-10-29T11:07:44.448Z,22.13
2022-10-29T11:08:57.022Z,22.03
2022-10-29T11:10:03.060Z,22.00
2022-10-29T11:11:37.401Z,21.99
2022-10-29T11:12:48.244Z,22.01
2022-10-29T11:13:51.959Z,21.96
2022-10-29T11:14:59.094Z,22.12
2022-10-29T11:16:39.611Z,22.22
2022-10-29T11:17:59.968Z,22.27
2022-10-29T11:19:31.336Z,22.24
2022-10-29T11:20:38.228Z,22.25
2022-10-29T11:21:43.796Z,22.35
2022-10-29T11:23:04.869Z,22.39
2022-10-29T11:24:18.126Z,22.47
2022-10-29T11:25:27.742Z,22.54
2022-10-29T11:26:50.434Z,22.48
2022-10-29T11:27:59.724Z,22.43
2022-10-29T11:29:35.224Z,22.37
2022-10-29T11:30:44.631Z,22.36
2022-10-29T11:31:58.544Z,22.38
2022-10-29T11:34:35.482Z,22.34
2022-10-29T11:35:42.072Z,22.29
2022-10-29T11:37:05.548Z,22.24
2022-10-29T11:38:44.978Z,22.27
2022-10-29T11:39:56.452Z,22.15
2022-10-29T11:41:10.210Z,22.08
2022-10-29T11:42:13.688Z,22.04
2022-10-29T11:43:19.656Z,21.99
2022-10-29T11:44:22.203Z,21.97
2022-10-29T11:45:42.243Z,21.94
2022-10-29T11:47:06.692Z,21.95
2022-10-29T11:49:52.388Z,21.77
2022-10-29T11:51:25.961Z,21.86
2022-10-29T11:52:52.418Z,21.81
2022-10-29T11:54:22.828Z,21.95
2022-10-29T11:55:50.119Z,22.03
2022-10-29T11:57:01.248Z,21.97
2022-10-29T11:58:23.141Z,21.90
2022-10-29T12:00:14.163Z,21.98
2022-10-29T12:01:36.745Z,22.06
2022-10-29T12:02:38.860Z,21.99
2022-10-29T12:03:59.658Z,22.11
2022-10-29T12:05:24.071Z,22.14
2022-10-29T12:06:39.608Z,22.12
2022-10-29T12:07:56.720Z,22.12
2022-10-29T12:09:37.734Z,22.28
2022-10-29T12:10:52.652Z,22.14
2022-10-29T12:12:21.005Z,22.10
2022-10-29T12:13:39.563Z,22.11
2022-10-29T12:15:04.310Z,22.15
2022-10-29T12:16:22.456Z,22.08
2022-10-29T12:17:53.594Z,22.05
2022-10-29T12:19:37.431Z,22.01
2022-10-29T12:20:44.708Z,22.10
2022-10-29T12:21:57.350Z,22.14
2022-10-29T12:23:16.353Z,22.15
2022-10-29T12:24:30.768Z,22.21
2022-10-29T12:25:56.014Z,22.15
2022-10-29T12:27:09.052Z,22.10
2022-10-29T12:28:47.759Z,22.23
2022-10-29T12:29:58.989Z,22.22
2022-10-29T12:31:08.922Z,22.27
2022-10-29T12:32:34.936Z,22.32
2022-10-29T12:33:50.193Z,22.31
2022-10-29T12:35:02.799Z,22.33
2022-10-29T12:36:18.541Z,22.31
2022-10-29T12:37:42.471Z,22.28
2022-10-29T12:38:52.724Z,22.22
2022-10-29T12:40:01.124Z,22.20
2022-10-29T12:41:08.791Z,22.18
2022-10-29T12:42:22.959Z,22.23
2022-10-29T12:43:35.120Z,22.20
2022-10-29T12:44:55.194Z,22.26
2022-10-29T12:46:28.398Z,22.23
2022-10-29T12:47:52.660Z,22.15
2022-10-29T12:49:18.347Z,22.18
2022-10-29T12:50:33.682Z,22.20
2022-10-29T12:53:25.635Z,22.17
2022-10-29T12:54:30.889Z,22.20
2022-10-29T12:55:34.900Z,22.18
2022-10-29T12:56:37.614Z,22.15
2022-10-29T12:57:39.924Z,22.17
2022-10-29T12:58:59.850Z,22.26
2022-10-29T13:00:40.656Z,22.27
2022-10-29T13:02:10.027Z,22.41
2022-10-29T13:03:08.131Z,22.51
2022-10-29T13:04:32.821Z,22.58
2022-10-29T13:05:38.396Z,22.74
2022-10-29T13:06:43.346Z,22.67
2022-10-29T13:07:45.444Z,22.58
2022-10-29T13:08:57.428Z,22.47
2022-10-29T13:10:29.802Z,22.44
2022-10-29T13:11:46.210Z,22.45
2022-10-29T13:13:00.072Z,22.46
2022-10-29T13:14:02.876Z,22.41
2022-10-29T13:15:15.637Z,22.35
2022-10-29T13:16:23.685Z,22.33
2022-10-29T13:17:25.980Z,22.32
2022-10-29T13:19:12.436Z,22.25
2022-10-29T13:20:21.726Z,22.26
2022-10-29T13:21:56.580Z,22.31
2022-10-29T13:23:00.110Z,22.16
2022-10-29T13:24:06.108Z,22.15
2022-10-29T13:25:32.999Z,22.16
2022-10-29T13:27:16.450Z,22.14
2022-10-29T13:28:18.552Z,22.25
2022-10-29T13:30:17.401Z,22.38
2022-10-29T13:31:21.020Z,22.32
2022-10-29T13:32:37.270Z,22.24
2022-10-29T13:33:39.335Z,22.21
2022-10-29T13:34:56.917Z,22.26
2022-10-29T13:36:07.308Z,22.41
2022-10-29T13:37:49.222Z,22.32
2022-10-29T13:39:04.620Z,22.40
2022-10-29T13:40:31.205Z,22.41
2022-10-29T13:41:44.710Z,22.39
2022-10-29T13:42:53.510Z,22.35
2022-10-29T13:44:04.622Z,22.22
2022-10-29T13:45:11.993Z,22.16
2022-10-29T13:46:14.275Z,21.98
2022-10-29T13:47:21.752Z,21.94
2022-10-29T13:48:32.281Z,21.82
2022-10-29T13:49:37.371Z,21.75
2022-10-29T13:50:40.567Z,21.75
2022-10-29T13:51:54.785Z,21.81
2022-10-29T13:53:00.608Z,21.86
2022-10-29T13:55:33.671Z,21.91
2022-10-29T13:56:39.799Z,21.88
2022-10-29T13:58:04.291Z,21.86
2022-10-29T13:59:14.911Z,21.90
2022-10-29T14:00:19.622Z,21.85
2022-10-29T14:01:22.963Z,21.94
2022-10-29T14:02:34.494Z,22.00
2022-10-29T14:03:39.427Z,22.14
2022-10-29T14:04:48.906Z,22.28
2022-10-29T14:06:00.549Z,22.26
2022-10-29T14:07:06.451Z,22.29
2022-10-29T14:08:14.763Z,22.25
2022-10-29T14:09:20.081Z,22.18
2022-10-29T14:10:27.221Z,22.12
2022-10-29T14:11:39.096Z,22.13
2022-10-29T14:12:42.479Z,22.02
2022-10-29T14:13:49.209Z,21.87
2022-10-29T14:15:14.836Z,21.75
2022-10-29T14:16:20.518Z,21.70
2022-10-29T14:17:22.874Z,21.66
2022-10-29T14:18:26.821Z,21.62
2022-10-29T14:19:29.162Z,21.57
2022-10-29T14:20:31.313Z,21.51
2022-10-29T14:21:38.855Z,21.47
2022-10-29T14:22:41.739Z,21.56
2022-10-29T14:24:05.431Z,21.64
2022-10-29T14:25:26.254Z,21.67
2022-10-29T14:26:30.993Z,21.66
2022-10-29T14:27:33.460Z,21.65
2022-10-29T14:28:35.612Z,21.64
2022-10-29T14:29:38.598Z,21.60
2022-10-29T14:30:40.795Z,21.59
2022-10-29T14:31:42.980Z,21.56
2022-10-29T14:32:46.425Z,21.53
2022-10-29T14:33:57.864Z,21.44
2022-10-29T14:35:00.413Z,21.40
2022-10-29T14:36:08.909Z,21.37
2022-10-29T14:37:22.141Z,21.35
2022-10-29T14:38:34.671Z,21.32
2022-10-29T14:39:57.140Z,21.28
2022-10-29T14:41:01.135Z,21.22
2022-10-29T14:42:03.500Z,21.22
2022-10-29T14:43:05.997Z,21.19
2022-10-29T14:44:17.665Z,21.19
2022-10-29T14:45:30.396Z,21.15
2022-10-29T14:46:34.949Z,21.14
2022-10-29T14:47:38.013Z,21.20
2022-10-29T14:48:51.256Z,21.20
2022-10-29T14:49:56.270Z,21.17
2022-10-29T14:50:58.877Z,21.13
2022-10-29T14:52:04.303Z,21.11